CJZ2 weather

Portage La Prairie (North) Airport
Portage La Prairie, Manitoba, Canada

Public forecast

Using degrees Celsius for public forecast. Weather courtesy of forecast.io.

METAR (pilot weather report)

Report is more than 2 hours old.

Closest report is Southport Airport, 5.5 nm (10.2 km) SSE. Retrieved 2019/05/24 05:00 UTC (5 hours ago):

CYPG 240500Z 00000KT 15SM BKN240 10/05 A3006 RMK CI6 LAST OBS/NEXT 241100 UTC SLP184

TAF (pilot weather forecast)

Forecast is more than 12 hours old.

Closest forecast is Southport Airport, 5.5 nm (10.2 km) SSE. Retrieved 2019/05/23 00:33 UTC (1 day ago):

TAF CYPG 232330Z 2400/2412 VRB03KT P6SM FEW060 BECMG 2404/2406 16008KT SCT240 RMK NXT FCST BY 240600Z